Las horas y fechas están en horario UTC
Sumar 1 hora en el horario de Invierno y 2 horas en el de Verano

Informes METAR cercanos

 

LEZL - Sevilla (civ/Mil, Spain
Distance from station: NNE 24km
Actualización: 26/04/2019 08:30
Despejado
Despejado
 Viento del varies
Viento: varies 2 km/h
Temperatura: 11°C
Rocío: 9°C
Humedad: 88%
Barómetro: 1025 hPa
Resumen: Despejado
Visibility: greater than 10 km
2019/04/26 06:30 LEZL 260630Z VRB01KT CAVOK 11/09 Q1025 NOSIG
LEMO - Moron (sp-Usafb), Spain
Distance from station: E 38km
Actualización: 26/04/2019 08:00
Few Clouds
Few Clouds
 Viento del calm
Viento: Calma
Temperatura: 5°C
Rocío: 4°C
Humedad: 93%
Barómetro: 1025 hPa
Clouds: Few Clouds
Visibility: 10 km
Cloud details: Few Clouds 91 m
2019/04/26 06:00 LEMO 260600Z 00000KT 9999 FEW003 05/04 Q1025 NOSIG
LEJR - Jerez (civ/Mil), Spain
Distance from station: S 53km
Actualización: 26/04/2019 08:30
Despejado
Despejado
 Viento del calm
Viento: Calma
Temperatura: 9°C
Rocío: 8°C
Humedad: 94%
Barómetro: 1025 hPa
Resumen: Despejado
Visibility: greater than 10 km
2019/04/26 06:30 LEJR 260630Z 00000KT CAVOK 09/08 Q1025
 
LERT - Rota Naval Stati, Spain
Distance from station: SSO 71km
Actualización: 26/04/2019 08:00
Despejado
Despejado
 Viento del NNE
Viento: NNE 7 km/h
Temperatura: 9°C
Wind Chill: 8°C
Rocío: 7°C
Humedad: 87%
Barómetro: 1025 hPa
Resumen: Despejado
Visibility: greater than 10 km
2019/04/26 06:00 LERT 260600Z 02004KT 350V050 CAVOK 09/07 Q1025 NOSIG
LEBA - Cordoba Airport, Spain
Distance from station: ENE 128km
Actualización: 26/04/2019 08:30
Few Clouds
Few Clouds
 Viento del varies
Viento: varies 2 km/h
Temperatura: 6°C
Rocío: 5°C
Humedad: 93%
Barómetro: 1025 hPa
Clouds: Few Clouds
Visibility: 10 km
Cloud details: Few Clouds 1372 m
2019/04/26 06:30 LEBA 260630Z VRB01KT 9999 FEW045 06/05 Q1025
LXGB - Gibraltar (civ/M, Gibraltar
Distance from station: SSE 137km
Actualización: 26/04/2019 07:50
Despejado
Despejado
 Viento del O
Viento: O 11 km/h
Temperatura: 13°C
Rocío: 8°C
Humedad: 72%
Barómetro: 1023 hPa
Resumen: Despejado
Visibility: greater than 10 km
2019/04/26 05:50 LXGB 260550Z 26006KT CAVOK 13/08 Q1023
 
LEMG - Malaga (civ/Mil), Spain
Distance from station: ESE 150km
Actualización: 26/04/2019 08:30
Despejado
Despejado
 Viento del O
Viento: O 24 km/h
Temperatura: 14°C
Rocío: 6°C
Humedad: 59%
Barómetro: 1023 hPa
Resumen: Despejado
Visibility: greater than 10 km
2019/04/26 06:30 LEMG 260630Z 28013KT 250V310 CAVOK 14/06 Q1023 NOSIG
GMTT - Tangier/Boukhalf, Morocco
Distance from station: S 169km
Actualización: 26/04/2019 08:30
Few Clouds
Few Clouds
 Viento del calm
Viento: Calma
Temperatura: 9°C
Rocío: 8°C
Humedad: 94%
Barómetro: 1024 hPa
Clouds: Few Clouds
Visibility: 8 km
Cloud details: Few Clouds 488 m
2019/04/26 06:30 GMTT 260630Z 00000KT 8000 R28///// FEW016 09/08 Q1024 NOSIG
LPFR - Faro, Portugal
Distance from station: O 172km
Actualización: 26/04/2019 08:30
Despejado
Despejado
 Viento del ONO
Viento: ONO 6 km/h
Temperatura: 10°C
Rocío: 8°C
Humedad: 88%
Barómetro: 1025 hPa
Resumen: Despejado
Visibility: greater than 10 km
2019/04/26 06:30 LPFR 260630Z 29003KT CAVOK 10/08 Q1025
 
LPBJ - Beja (por/Ger-Af, Portugal
Distance from station: ONO 192km
Actualización: 26/04/2019 08:00
Nearby fog, Parcialmente nuboso
Nearby fog, Parcialmente nuboso
 Viento del NNO
Viento: NNO 6 km/h
Temperatura: 7°C
Rocío: 6°C
Humedad: 93%
Barómetro: 1025 hPa
Resumen: Nearby Fog
Clouds: Parcialmente nuboso
Visibility: 9 km
2019/04/26 06:00 LPBJ 260600Z 34003KT 9000 VCFG NSC 07/06 Q1025
LEBZ - Talavera Ab/Bada, Spain
Distance from station: NNO 194km
Actualización: 26/04/2019 08:00
Despejado
Despejado
 Viento del OSO
Viento: OSO 11 km/h
Temperatura: 8°C
Wind Chill: 6°C
Rocío: 7°C
Humedad: 93%
Barómetro: 1025 hPa
Resumen: Despejado
Visibility: greater than 10 km
2019/04/26 06:00 LEBZ 260600Z 25006KT CAVOK 08/07 Q1025
LEMD - Madrid/Barajas, Spain
Distance from station: NE 415km
Actualización: 26/04/2019 08:30
Few Clouds
Few Clouds
 Viento del ESE
Viento: ESE 6 km/h
Temperatura: 8°C
Rocío: 5°C
Humedad: 82%
Barómetro: 1022 hPa
Clouds: Few Clouds
Visibility: 10 km
Cloud details: Few Clouds 1524 m
2019/04/26 06:30 LEMD 260630Z 12003KT 9999 FEW050 08/05 Q1022 NOSIG